sensor_id;sensor_type;location;lat;lon;timestamp;pressure;altitude;pressure_sealevel;temperature;humidity
85758;BME280;76202;52.626;4.746;2024-02-26T00:01:23;100013.13;;;18.17;58.07
85758;BME280;76202;52.626;4.746;2024-02-26T00:03:48;100009.59;;;18.17;57.93
85758;BME280;76202;52.626;4.746;2024-02-26T00:06:14;100019.03;;;18.14;58.00
85758;BME280;76202;52.626;4.746;2024-02-26T00:08:39;100021.97;;;18.13;57.84
85758;BME280;76202;52.626;4.746;2024-02-26T00:11:04;100023.91;;;18.12;57.82
85758;BME280;76202;52.626;4.746;2024-02-26T00:13:30;100036.84;;;18.10;57.93
85758;BME280;76202;52.626;4.746;2024-02-26T00:15:55;100042.53;;;18.09;57.86
85758;BME280;76202;52.626;4.746;2024-02-26T00:18:20;100039.28;;;18.07;58.29
85758;BME280;76202;52.626;4.746;2024-02-26T00:20:46;100039.78;;;18.04;58.28
85758;BME280;76202;52.626;4.746;2024-02-26T00:23:11;100041.66;;;18.03;58.06
85758;BME280;76202;52.626;4.746;2024-02-26T00:25:36;100048.13;;;18.02;58.25
85758;BME280;76202;52.626;4.746;2024-02-26T00:28:04;100040.53;;;17.99;58.31
85758;BME280;76202;52.626;4.746;2024-02-26T00:30:29;100052.41;;;17.98;58.17
85758;BME280;76202;52.626;4.746;2024-02-26T00:32:55;100044.00;;;17.95;58.17
85758;BME280;76202;52.626;4.746;2024-02-26T00:35:20;100060.47;;;17.93;58.01
85758;BME280;76202;52.626;4.746;2024-02-26T00:37:46;100052.63;;;17.92;58.28
85758;BME280;76202;52.626;4.746;2024-02-26T00:40:11;100058.28;;;17.90;58.33
85758;BME280;76202;52.626;4.746;2024-02-26T00:42:37;100061.25;;;17.89;58.28
85758;BME280;76202;52.626;4.746;2024-02-26T00:45:02;100064.19;;;17.87;58.10
85758;BME280;76202;52.626;4.746;2024-02-26T00:47:28;100057.41;;;17.84;57.93
85758;BME280;76202;52.626;4.746;2024-02-26T00:49:53;100066.56;;;17.83;58.12
85758;BME280;76202;52.626;4.746;2024-02-26T00:52:19;100064.97;;;17.82;58.00
85758;BME280;76202;52.626;4.746;2024-02-26T00:54:44;100060.88;;;17.80;57.73
85758;BME280;76202;52.626;4.746;2024-02-26T00:57:09;100060.28;;;17.78;58.19
85758;BME280;76202;52.626;4.746;2024-02-26T00:59:35;100059.72;;;17.76;58.12
85758;BME280;76202;52.626;4.746;2024-02-26T01:02:00;100068.66;;;17.76;57.77
85758;BME280;76202;52.626;4.746;2024-02-26T01:04:27;100064.59;;;17.74;58.20
85758;BME280;76202;52.626;4.746;2024-02-26T01:06:52;100065.88;;;17.71;58.07
85758;BME280;76202;52.626;4.746;2024-02-26T01:09:18;100061.56;;;17.70;57.81
85758;BME280;76202;52.626;4.746;2024-02-26T01:11:43;100066.41;;;17.68;58.33
85758;BME280;76202;52.626;4.746;2024-02-26T01:14:09;100062.28;;;17.66;58.27
85758;BME280;76202;52.626;4.746;2024-02-26T01:16:34;100062.28;;;17.66;58.11
85758;BME280;76202;52.626;4.746;2024-02-26T01:19:00;100067.13;;;17.64;58.09
85758;BME280;76202;52.626;4.746;2024-02-26T01:21:25;100068.19;;;17.63;57.82
85758;BME280;76202;52.626;4.746;2024-02-26T01:23:54;100075.75;;;17.61;58.23
85758;BME280;76202;52.626;4.746;2024-02-26T01:26:19;100072.50;;;17.59;57.83
85758;BME280;76202;52.626;4.746;2024-02-26T01:28:45;100083.31;;;17.59;58.03
85758;BME280;76202;52.626;4.746;2024-02-26T01:31:10;100077.31;;;17.57;58.30
85758;BME280;76202;52.626;4.746;2024-02-26T01:33:36;100077.56;;;17.55;58.15
85758;BME280;76202;52.626;4.746;2024-02-26T01:36:01;100084.88;;;17.55;58.11
85758;BME280;76202;52.626;4.746;2024-02-26T01:38:27;100078.88;;;17.53;58.20
85758;BME280;76202;52.626;4.746;2024-02-26T01:40:52;100089.09;;;17.51;58.32
85758;BME280;76202;52.626;4.746;2024-02-26T01:43:18;100092.06;;;17.49;58.44
85758;BME280;76202;52.626;4.746;2024-02-26T01:45:43;100092.31;;;17.48;58.11
85758;BME280;76202;52.626;4.746;2024-02-26T01:48:09;100091.50;;;17.47;58.10
85758;BME280;76202;52.626;4.746;2024-02-26T01:50:36;100090.91;;;17.45;58.25
85758;BME280;76202;52.626;4.746;2024-02-26T01:53:03;100097.41;;;17.44;58.16
85758;BME280;76202;52.626;4.746;2024-02-26T01:55:29;100091.41;;;17.42;58.31
85758;BME280;76202;52.626;4.746;2024-02-26T01:57:54;100088.16;;;17.40;58.24
85758;BME280;76202;52.626;4.746;2024-02-26T02:00:20;100094.59;;;17.39;58.46
85758;BME280;76202;52.626;4.746;2024-02-26T02:02:47;100091.91;;;17.39;57.81
85758;BME280;76202;52.626;4.746;2024-02-26T02:05:16;100099.44;;;17.37;57.96
85758;BME280;76202;52.626;4.746;2024-02-26T02:07:43;100091.59;;;17.36;58.40
85758;BME280;76202;52.626;4.746;2024-02-26T02:10:09;100100.78;;;17.35;58.13
85758;BME280;76202;52.626;4.746;2024-02-26T02:12:35;100106.41;;;17.33;58.19
85758;BME280;76202;52.626;4.746;2024-02-26T02:15:01;100099.63;;;17.30;58.19
85758;BME280;76202;52.626;4.746;2024-02-26T02:17:28;100098.00;;;17.29;57.99
85758;BME280;76202;52.626;4.746;2024-02-26T02:19:53;100098.22;;;17.28;58.24
85758;BME280;76202;52.626;4.746;2024-02-26T02:22:19;100097.41;;;17.27;57.76
85758;BME280;76202;52.626;4.746;2024-02-26T02:24:45;100097.66;;;17.26;58.17
85758;BME280;76202;52.626;4.746;2024-02-26T02:27:10;100097.91;;;17.24;58.34
85758;BME280;76202;52.626;4.746;2024-02-26T02:29:36;100112.50;;;17.23;57.76
85758;BME280;76202;52.626;4.746;2024-02-26T02:32:02;100112.72;;;17.22;57.72
85758;BME280;76202;52.626;4.746;2024-02-26T02:34:28;100118.41;;;17.20;58.04
85758;BME280;76202;52.626;4.746;2024-02-26T02:36:54;100124.84;;;17.19;57.90
85758;BME280;76202;52.626;4.746;2024-02-26T02:39:20;100130.53;;;17.18;58.50
85758;BME280;76202;52.626;4.746;2024-02-26T02:41:46;100127.00;;;17.17;58.25
85758;BME280;76202;52.626;4.746;2024-02-26T02:44:11;100132.63;;;17.16;57.84
85758;BME280;76202;52.626;4.746;2024-02-26T02:46:37;100139.13;;;17.15;57.94
85758;BME280;76202;52.626;4.746;2024-02-26T02:49:02;100135.81;;;17.13;58.00
85758;BME280;76202;52.626;4.746;2024-02-26T02:51:28;100140.66;;;17.11;58.24
85758;BME280;76202;52.626;4.746;2024-02-26T02:53:53;100133.63;;;17.10;57.74
85758;BME280;76202;52.626;4.746;2024-02-26T02:56:18;100142.81;;;17.09;57.70
85758;BME280;76202;52.626;4.746;2024-02-26T02:58:44;100147.38;;;17.08;58.42
85758;BME280;76202;52.626;4.746;2024-02-26T03:01:09;100149.53;;;17.06;58.42
85758;BME280;76202;52.626;4.746;2024-02-26T03:03:34;100140.81;;;17.04;58.31
85758;BME280;76202;52.626;4.746;2024-02-26T03:06:02;100150.81;;;17.04;57.63
85758;BME280;76202;52.626;4.746;2024-02-26T03:08:27;100149.41;;;17.01;58.33
85758;BME280;76202;52.626;4.746;2024-02-26T03:10:52;100144.28;;;17.00;58.18
85758;BME280;76202;52.626;4.746;2024-02-26T03:13:18;100145.31;;;16.99;57.78
85758;BME280;76202;52.626;4.746;2024-02-26T03:15:43;100154.47;;;16.98;57.88
85758;BME280;76202;52.626;4.746;2024-02-26T03:18:09;100149.34;;;16.96;58.17
85758;BME280;76202;52.626;4.746;2024-02-26T03:20:34;100152.03;;;16.96;58.06
85758;BME280;76202;52.626;4.746;2024-02-26T03:22:59;100156.63;;;16.96;57.93
85758;BME280;76202;52.626;4.746;2024-02-26T03:25:25;100160.63;;;16.93;57.88
85758;BME280;76202;52.626;4.746;2024-02-26T03:27:52;100158.97;;;16.92;57.74
85758;BME280;76202;52.626;4.746;2024-02-26T03:30:18;100168.97;;;16.92;58.14
85758;BME280;76202;52.626;4.746;2024-02-26T03:32:43;100164.66;;;16.91;57.94
85758;BME280;76202;52.626;4.746;2024-02-26T03:35:08;100172.97;;;16.89;58.01
85758;BME280;76202;52.626;4.746;2024-02-26T03:37:34;100175.94;;;16.88;57.74
85758;BME280;76202;52.626;4.746;2024-02-26T03:39:59;100177.81;;;16.87;57.56
85758;BME280;76202;52.626;4.746;2024-02-26T03:42:26;100179.94;;;16.85;58.41
85758;BME280;76202;52.626;4.746;2024-02-26T03:44:51;100177.72;;;16.82;58.09
85758;BME280;76202;52.626;4.746;2024-02-26T03:47:17;100190.16;;;16.83;58.11
85758;BME280;76202;52.626;4.746;2024-02-26T03:49:42;100185.00;;;16.82;58.28
85758;BME280;76202;52.626;4.746;2024-02-26T03:52:07;100193.09;;;16.82;57.62
85758;BME280;76202;52.626;4.746;2024-02-26T03:54:33;100197.69;;;16.81;57.70
85758;BME280;76202;52.626;4.746;2024-02-26T03:56:58;100205.44;;;16.78;57.73
85758;BME280;76202;52.626;4.746;2024-02-26T03:59:23;100201.91;;;16.77;57.85
85758;BME280;76202;52.626;4.746;2024-02-26T04:01:50;100211.94;;;16.77;57.73
85758;BME280;76202;52.626;4.746;2024-02-26T04:04:16;100208.41;;;16.76;58.13
85758;BME280;76202;52.626;4.746;2024-02-26T04:06:45;100210.50;;;16.74;57.79
85758;BME280;76202;52.626;4.746;2024-02-26T04:09:13;100209.94;;;16.72;57.63
85758;BME280;76202;52.626;4.746;2024-02-26T04:11:38;100216.63;;;16.69;57.78
85758;BME280;76202;52.626;4.746;2024-02-26T04:14:04;100209.38;;;16.70;57.51
85758;BME280;76202;52.626;4.746;2024-02-26T04:16:31;100216.91;;;16.68;58.25
85758;BME280;76202;52.626;4.746;2024-02-26T04:18:56;100215.25;;;16.67;57.71
85758;BME280;76202;52.626;4.746;2024-02-26T04:21:21;100223.56;;;16.65;58.42
85758;BME280;76202;52.626;4.746;2024-02-26T04:23:47;100222.78;;;16.65;58.22
85758;BME280;76202;52.626;4.746;2024-02-26T04:26:14;100227.56;;;16.63;57.67
85758;BME280;76202;52.626;4.746;2024-02-26T04:28:39;100221.34;;;16.62;57.60
85758;BME280;76202;52.626;4.746;2024-02-26T04:31:05;100227.56;;;16.63;57.80
85758;BME280;76202;52.626;4.746;2024-02-26T04:33:30;100219.72;;;16.61;57.46
85758;BME280;76202;52.626;4.746;2024-02-26T04:35:58;100223.72;;;16.59;58.69
85758;BME280;76202;52.626;4.746;2024-02-26T04:38:24;100223.97;;;16.57;58.26
85758;BME280;76202;52.626;4.746;2024-02-26T04:40:49;100231.22;;;16.57;57.57
85758;BME280;76202;52.626;4.746;2024-02-26T04:43:14;100239.59;;;16.55;58.41
85758;BME280;76202;52.626;4.746;2024-02-26T04:45:40;100246.25;;;16.53;57.90
85758;BME280;76202;52.626;4.746;2024-02-26T04:48:06;100247.06;;;16.53;58.21
85758;BME280;76202;52.626;4.746;2024-02-26T04:50:31;100249.19;;;16.51;58.22
85758;BME280;76202;52.626;4.746;2024-02-26T04:52:57;100254.56;;;16.51;58.13
85758;BME280;76202;52.626;4.746;2024-02-26T04:55:22;100261.84;;;16.51;58.22
85758;BME280;76202;52.626;4.746;2024-02-26T04:57:47;100256.94;;;16.48;57.71
85758;BME280;76202;52.626;4.746;2024-02-26T05:00:13;100256.94;;;16.48;57.61
85758;BME280;76202;52.626;4.746;2024-02-26T05:02:39;100249.09;;;16.46;58.20
85758;BME280;76202;52.626;4.746;2024-02-26T05:05:05;100256.34;;;16.46;58.08
85758;BME280;76202;52.626;4.746;2024-02-26T05:07:31;100263.06;;;16.43;57.67
85758;BME280;76202;52.626;4.746;2024-02-26T05:09:57;100264.09;;;16.42;57.99
85758;BME280;76202;52.626;4.746;2024-02-26T05:12:22;100267.88;;;16.41;57.56
85758;BME280;76202;52.626;4.746;2024-02-26T05:14:47;100277.84;;;16.41;58.15
85758;BME280;76202;52.626;4.746;2024-02-26T05:17:13;100278.06;;;16.39;57.43
85758;BME280;76202;52.626;4.746;2024-02-26T05:19:38;100288.03;;;16.39;58.30
85758;BME280;76202;52.626;4.746;2024-02-26T05:22:03;100278.31;;;16.38;58.30
85758;BME280;76202;52.626;4.746;2024-02-26T05:24:29;100283.94;;;16.36;58.13
85758;BME280;76202;52.626;4.746;2024-02-26T05:26:54;100287.72;;;16.35;58.09
85758;BME280;76202;52.626;4.746;2024-02-26T05:29:20;100284.41;;;16.33;57.87
85758;BME280;76202;52.626;4.746;2024-02-26T05:31:46;100290.63;;;16.34;57.43
85758;BME280;76202;52.626;4.746;2024-02-26T05:34:11;100299.22;;;16.31;57.69
85758;BME280;76202;52.626;4.746;2024-02-26T05:36:36;100293.81;;;16.31;58.13
85758;BME280;76202;52.626;4.746;2024-02-26T05:39:02;100306.47;;;16.30;57.44
85758;BME280;76202;52.626;4.746;2024-02-26T05:41:29;100304.84;;;16.29;58.48
85758;BME280;76202;52.626;4.746;2024-02-26T05:43:55;100312.34;;;16.27;58.33
85758;BME280;76202;52.626;4.746;2024-02-26T05:46:21;100309.91;;;16.26;57.75
85758;BME280;76202;52.626;4.746;2024-02-26T05:48:48;100319.03;;;16.25;58.08
85758;BME280;76202;52.626;4.746;2024-02-26T05:51:14;100315.50;;;16.24;57.45
85758;BME280;76202;52.626;4.746;2024-02-26T05:53:40;100319.28;;;16.23;57.62
85758;BME280;76202;52.626;4.746;2024-02-26T05:56:06;100319.50;;;16.22;58.38
85758;BME280;76202;52.626;4.746;2024-02-26T05:58:31;100327.03;;;16.19;58.04
85758;BME280;76202;52.626;4.746;2024-02-26T06:00:56;100324.31;;;16.19;58.14
85758;BME280;76202;52.626;4.746;2024-02-26T06:03:22;100345.09;;;16.19;57.60
85758;BME280;76202;52.626;4.746;2024-02-26T06:05:47;100333.00;;;16.22;57.76
85758;BME280;76202;52.626;4.746;2024-02-26T06:08:12;100339.69;;;16.31;57.45
85758;BME280;76202;52.626;4.746;2024-02-26T06:10:39;100349.66;;;16.42;57.49
85758;BME280;76202;52.626;4.746;2024-02-26T06:13:05;100354.03;;;16.54;57.12
85758;BME280;76202;52.626;4.746;2024-02-26T06:15:30;100366.19;;;16.68;56.93
85758;BME280;76202;52.626;4.746;2024-02-26T06:17:56;100373.59;;;16.85;56.70
85758;BME280;76202;52.626;4.746;2024-02-26T06:20:21;100363.09;;;17.00;56.12
85758;BME280;76202;52.626;4.746;2024-02-26T06:22:46;100362.66;;;17.19;55.37
85758;BME280;76202;52.626;4.746;2024-02-26T06:25:12;100369.78;;;17.37;54.90
85758;BME280;76202;52.626;4.746;2024-02-26T06:27:37;100362.78;;;17.53;55.02
85758;BME280;76202;52.626;4.746;2024-02-26T06:30:03;100368.78;;;17.71;54.65
85758;BME280;76202;52.626;4.746;2024-02-26T06:32:28;100370.06;;;17.97;54.44
85758;BME280;76202;52.626;4.746;2024-02-26T06:34:54;100372.91;;;18.57;52.60
85758;BME280;76202;52.626;4.746;2024-02-26T06:37:20;100385.63;;;18.95;51.74
85758;BME280;76202;52.626;4.746;2024-02-26T06:39:45;100386.44;;;19.17;51.27
85758;BME280;76202;52.626;4.746;2024-02-26T06:42:11;100395.47;;;19.44;50.90
85758;BME280;76202;52.626;4.746;2024-02-26T06:44:37;100397.03;;;19.67;50.21
85758;BME280;76202;52.626;4.746;2024-02-26T06:47:02;100399.78;;;19.72;50.38
85758;BME280;76202;52.626;4.746;2024-02-26T06:49:28;100396.78;;;19.95;49.49
85758;BME280;76202;52.626;4.746;2024-02-26T06:51:54;100409.41;;;20.12;49.39
85758;BME280;76202;52.626;4.746;2024-02-26T06:54:19;100413.16;;;20.37;48.64
85758;BME280;76202;52.626;4.746;2024-02-26T06:56:45;100415.16;;;20.52;49.16
85758;BME280;76202;52.626;4.746;2024-02-26T06:59:10;100413.59;;;20.61;49.04
85758;BME280;76202;52.626;4.746;2024-02-26T07:01:35;100416.94;;;20.73;48.85
85758;BME280;76202;52.626;4.746;2024-02-26T07:04:01;100421.94;;;20.91;48.04
85758;BME280;76202;52.626;4.746;2024-02-26T07:06:29;100425.31;;;21.08;47.65
85758;BME280;76202;52.626;4.746;2024-02-26T07:08:54;100420.47;;;21.16;47.77
85758;BME280;76202;52.626;4.746;2024-02-26T07:11:20;100433.53;;;21.19;47.95
85758;BME280;76202;52.626;4.746;2024-02-26T07:13:46;100432.78;;;21.33;47.53
85758;BME280;76202;52.626;4.746;2024-02-26T07:16:11;100437.41;;;21.38;47.88
85758;BME280;76202;52.626;4.746;2024-02-26T07:18:38;100445.84;;;21.41;47.68
85758;BME280;76202;52.626;4.746;2024-02-26T07:21:04;100449.69;;;21.40;47.92
85758;BME280;76202;52.626;4.746;2024-02-26T07:23:31;100456.75;;;21.46;47.47
85758;BME280;76202;52.626;4.746;2024-02-26T07:25:56;100456.22;;;21.49;47.73
85758;BME280;76202;52.626;4.746;2024-02-26T07:28:21;100449.69;;;21.55;47.50
85758;BME280;76202;52.626;4.746;2024-02-26T07:30:47;100457.63;;;21.67;47.92
85758;BME280;76202;52.626;4.746;2024-02-26T07:33:12;100451.34;;;21.61;47.61
85758;BME280;76202;52.626;4.746;2024-02-26T07:35:38;100453.84;;;21.68;47.53
85758;BME280;76202;52.626;4.746;2024-02-26T07:38:07;100458.72;;;21.66;47.77
85758;BME280;76202;52.626;4.746;2024-02-26T07:40:32;100458.97;;;21.64;47.79
85758;BME280;76202;52.626;4.746;2024-02-26T07:42:58;100468.50;;;21.52;47.87
85758;BME280;76202;52.626;4.746;2024-02-26T07:45:23;100475.84;;;21.51;47.99
85758;BME280;76202;52.626;4.746;2024-02-26T07:47:48;100479.63;;;21.50;48.24
85758;BME280;76202;52.626;4.746;2024-02-26T07:50:14;100482.06;;;21.47;48.47
85758;BME280;76202;52.626;4.746;2024-02-26T07:52:40;100483.16;;;21.46;48.53
85758;BME280;76202;52.626;4.746;2024-02-26T07:55:05;100480.16;;;21.42;48.17
85758;BME280;76202;52.626;4.746;2024-02-26T07:57:32;100481.22;;;21.36;48.52
85758;BME280;76202;52.626;4.746;2024-02-26T07:59:59;100488.53;;;21.36;48.78
85758;BME280;76202;52.626;4.746;2024-02-26T08:02:24;100490.44;;;21.30;49.05
85758;BME280;76202;52.626;4.746;2024-02-26T08:04:50;100497.22;;;21.28;48.63
85758;BME280;76202;52.626;4.746;2024-02-26T08:07:15;100499.94;;;21.23;48.59
85758;BME280;76202;52.626;4.746;2024-02-26T08:09:41;100504.78;;;21.16;48.84
85758;BME280;76202;52.626;4.746;2024-02-26T08:12:06;100510.94;;;21.06;49.80
85758;BME280;76202;52.626;4.746;2024-02-26T08:14:32;100514.91;;;20.93;49.34
85758;BME280;76202;52.626;4.746;2024-02-26T08:16:58;100521.13;;;20.84;49.96
85758;BME280;76202;52.626;4.746;2024-02-26T08:19:24;100527.63;;;20.83;50.08
85758;BME280;76202;52.626;4.746;2024-02-26T08:21:49;100539.25;;;20.73;50.00
85758;BME280;76202;52.626;4.746;2024-02-26T08:24:15;100537.31;;;20.69;50.48
85758;BME280;76202;52.626;4.746;2024-02-26T08:26:40;100533.47;;;20.65;50.13
85758;BME280;76202;52.626;4.746;2024-02-26T08:29:05;100542.97;;;20.62;50.69
85758;BME280;76202;52.626;4.746;2024-02-26T08:31:31;100529.88;;;20.59;50.50
85758;BME280;76202;52.626;4.746;2024-02-26T08:33:56;100528.25;;;20.58;50.64
85758;BME280;76202;52.626;4.746;2024-02-26T08:36:21;100527.13;;;20.54;50.93
85758;BME280;76202;52.626;4.746;2024-02-26T08:38:47;100539.06;;;20.53;50.68
85758;BME280;76202;52.626;4.746;2024-02-26T08:41:12;100544.50;;;20.53;50.76
85758;BME280;76202;52.626;4.746;2024-02-26T08:43:38;100536.06;;;20.49;50.69
85758;BME280;76202;52.626;4.746;2024-02-26T08:46:03;100543.91;;;20.46;50.65
85758;BME280;76202;52.626;4.746;2024-02-26T08:48:29;100541.97;;;20.41;50.66
85758;BME280;76202;52.626;4.746;2024-02-26T08:50:54;100535.69;;;20.41;51.24
85758;BME280;76202;52.626;4.746;2024-02-26T08:53:20;100537.50;;;20.30;51.22
85758;BME280;76202;52.626;4.746;2024-02-26T08:55:46;100543.19;;;20.29;51.31
85758;BME280;76202;52.626;4.746;2024-02-26T08:58:11;100548.63;;;20.29;51.43
85758;BME280;76202;52.626;4.746;2024-02-26T09:00:36;100564.09;;;20.28;51.23
85758;BME280;76202;52.626;4.746;2024-02-26T09:03:02;100562.13;;;20.24;51.78
85758;BME280;76202;52.626;4.746;2024-02-26T09:05:28;100556.06;;;20.17;52.13
85758;BME280;76202;52.626;4.746;2024-02-26T09:07:53;100564.72;;;20.14;51.64
85758;BME280;76202;52.626;4.746;2024-02-26T09:10:19;100574.28;;;20.16;51.80
85758;BME280;76202;52.626;4.746;2024-02-26T09:12:44;100584.88;;;20.18;51.84
85758;BME280;76202;52.626;4.746;2024-02-26T09:15:09;100600.03;;;20.14;51.66
85758;BME280;76202;52.626;4.746;2024-02-26T09:17:35;100598.22;;;20.19;52.15
85758;BME280;76202;52.626;4.746;2024-02-26T09:20:01;100602.81;;;20.19;51.66
85758;BME280;76202;52.626;4.746;2024-02-26T09:22:26;100613.72;;;20.24;52.04
85758;BME280;76202;52.626;4.746;2024-02-26T09:24:52;100605.84;;;20.22;51.47
85758;BME280;76202;52.626;4.746;2024-02-26T09:27:18;100611.84;;;20.24;51.74
85758;BME280;76202;52.626;4.746;2024-02-26T09:29:44;100609.94;;;20.25;51.60
85758;BME280;76202;52.626;4.746;2024-02-26T09:32:09;100611.00;;;20.24;51.98
85758;BME280;76202;52.626;4.746;2024-02-26T09:34:34;100619.16;;;20.24;51.55
85758;BME280;76202;52.626;4.746;2024-02-26T09:37:02;100627.66;;;20.27;51.14
85758;BME280;76202;52.626;4.746;2024-02-26T09:39:27;100632.25;;;20.27;51.61
85758;BME280;76202;52.626;4.746;2024-02-26T09:41:53;100624.13;;;20.27;51.24
85758;BME280;76202;52.626;4.746;2024-02-26T09:44:20;100629.56;;;20.27;51.44
85758;BME280;76202;52.626;4.746;2024-02-26T09:46:47;100628.97;;;20.25;51.49
85758;BME280;76202;52.626;4.746;2024-02-26T09:49:15;100634.03;;;20.16;51.49
85758;BME280;76202;52.626;4.746;2024-02-26T09:51:41;100640.19;;;20.12;51.96
85758;BME280;76202;52.626;4.746;2024-02-26T09:54:07;100645.91;;;20.10;51.94
85758;BME280;76202;52.626;4.746;2024-02-26T09:56:38;100641.53;;;20.09;51.71
85758;BME280;76202;52.626;4.746;2024-02-26T09:59:06;100635.28;;;20.09;51.80
85758;BME280;76202;52.626;4.746;2024-02-26T10:01:36;100647.28;;;20.13;51.49
85758;BME280;76202;52.626;4.746;2024-02-26T10:04:04;100645.13;;;20.15;51.79
85758;BME280;76202;52.626;4.746;2024-02-26T10:06:30;100652.72;;;20.13;51.54
85758;BME280;76202;52.626;4.746;2024-02-26T10:08:56;100658.06;;;20.08;51.76
85758;BME280;76202;52.626;4.746;2024-02-26T10:11:23;100670.25;;;20.05;52.06
85758;BME280;76202;52.626;4.746;2024-02-26T10:13:49;100666.47;;;20.06;51.67
85758;BME280;76202;52.626;4.746;2024-02-26T10:16:15;100668.41;;;20.11;51.92
85758;BME280;76202;52.626;4.746;2024-02-26T10:18:51;100669.84;;;20.13;51.83
85758;BME280;76202;52.626;4.746;2024-02-26T10:21:21;100674.75;;;20.16;51.84
85758;BME280;76202;52.626;4.746;2024-02-26T10:23:47;100680.47;;;20.20;51.76
85758;BME280;76202;52.626;4.746;2024-02-26T10:26:14;100687.66;;;20.26;51.71
85758;BME280;76202;52.626;4.746;2024-02-26T10:28:41;100691.34;;;20.20;51.60
85758;BME280;76202;52.626;4.746;2024-02-26T10:31:07;100688.56;;;20.15;52.25
85758;BME280;76202;52.626;4.746;2024-02-26T10:33:34;100699.69;;;20.13;51.94
85758;BME280;76202;52.626;4.746;2024-02-26T10:36:03;100700.75;;;20.12;52.11
85758;BME280;76202;52.626;4.746;2024-02-26T10:38:30;100713.00;;;20.15;51.70
85758;BME280;76202;52.626;4.746;2024-02-26T10:40:56;100716.22;;;20.12;52.07
85758;BME280;76202;52.626;4.746;2024-02-26T10:43:21;100710.75;;;20.07;52.46
85758;BME280;76202;52.626;4.746;2024-02-26T10:45:46;100706.69;;;20.09;52.62
85758;BME280;76202;52.626;4.746;2024-02-26T10:48:14;100714.06;;;20.14;52.21
85758;BME280;76202;52.626;4.746;2024-02-26T10:50:40;100715.22;;;20.18;52.17
85758;BME280;76202;52.626;4.746;2024-02-26T10:53:20;100725.91;;;20.24;52.39
85758;BME280;76202;52.626;4.746;2024-02-26T10:55:55;100722.72;;;20.27;52.33
85758;BME280;76202;52.626;4.746;2024-02-26T10:58:22;100723.38;;;20.18;52.75
85758;BME280;76202;52.626;4.746;2024-02-26T11:00:50;100738.50;;;20.14;52.85
85758;BME280;76202;52.626;4.746;2024-02-26T11:03:16;100736.56;;;20.09;52.96
85758;BME280;76202;52.626;4.746;2024-02-26T11:05:48;100753.78;;;19.98;53.50
85758;BME280;76202;52.626;4.746;2024-02-26T11:08:15;100746.16;;;19.95;53.29
85758;BME280;76202;52.626;4.746;2024-02-26T11:10:42;100744.50;;;19.94;53.85
85758;BME280;76202;52.626;4.746;2024-02-26T11:13:09;100743.94;;;19.92;53.55
85758;BME280;76202;52.626;4.746;2024-02-26T11:15:36;100750.97;;;19.93;53.50
85758;BME280;76202;52.626;4.746;2024-02-26T11:18:02;100749.50;;;20.02;52.87
85758;BME280;76202;52.626;4.746;2024-02-26T11:20:28;100751.63;;;20.00;53.11
85758;BME280;76202;52.626;4.746;2024-02-26T11:22:55;100753.53;;;19.99;53.76
85758;BME280;76202;52.626;4.746;2024-02-26T11:25:20;100754.13;;;20.01;53.28
85758;BME280;76202;52.626;4.746;2024-02-26T11:27:53;100762.50;;;20.00;53.19
85758;BME280;76202;52.626;4.746;2024-02-26T11:30:22;100750.25;;;19.97;53.51
85758;BME280;76202;52.626;4.746;2024-02-26T11:32:48;100751.31;;;19.96;53.53
85758;BME280;76202;52.626;4.746;2024-02-26T11:35:16;100761.66;;;19.99;53.96
85758;BME280;76202;52.626;4.746;2024-02-26T11:37:54;100762.00;;;20.03;53.94
85758;BME280;76202;52.626;4.746;2024-02-26T11:40:22;100757.13;;;20.05;54.02
85758;BME280;76202;52.626;4.746;2024-02-26T11:42:48;100765.28;;;20.05;54.00
85758;BME280;76202;52.626;4.746;2024-02-26T11:45:47;100761.56;;;20.11;53.61
85758;BME280;76202;52.626;4.746;2024-02-26T11:48:14;100764.22;;;20.06;54.09
85758;BME280;76202;52.626;4.746;2024-02-26T11:50:45;100763.66;;;20.04;54.27
85758;BME280;76202;52.626;4.746;2024-02-26T11:55:46;100763.81;;;19.97;55.17
85758;BME280;76202;52.626;4.746;2024-02-26T11:58:11;100778.41;;;19.91;54.83
85758;BME280;76202;52.626;4.746;2024-02-26T12:00:40;100776.19;;;19.88;54.59
85758;BME280;76202;52.626;4.746;2024-02-26T12:03:05;100771.75;;;19.82;55.21
85758;BME280;76202;52.626;4.746;2024-02-26T12:05:34;100776.59;;;19.80;55.52
85758;BME280;76202;52.626;4.746;2024-02-26T12:08:07;100781.53;;;19.83;55.01
85758;BME280;76202;52.626;4.746;2024-02-26T12:10:37;100783.66;;;19.81;54.89
85758;BME280;76202;52.626;4.746;2024-02-26T12:13:08;100790.72;;;19.82;54.91
85758;BME280;76202;52.626;4.746;2024-02-26T12:15:38;100792.06;;;19.80;54.99
85758;BME280;76202;52.626;4.746;2024-02-26T12:18:05;100801.75;;;19.76;54.73
85758;BME280;76202;52.626;4.746;2024-02-26T12:20:31;100808.91;;;19.65;55.05
85758;BME280;76202;52.626;4.746;2024-02-26T12:22:57;100809.47;;;19.67;55.23
85758;BME280;76202;52.626;4.746;2024-02-26T12:25:27;100798.97;;;19.71;55.07
85758;BME280;76202;52.626;4.746;2024-02-26T12:27:54;100815.59;;;19.74;55.24
85758;BME280;76202;52.626;4.746;2024-02-26T12:30:21;100817.06;;;19.82;54.90
85758;BME280;76202;52.626;4.746;2024-02-26T12:32:48;100808.19;;;19.86;54.58
85758;BME280;76202;52.626;4.746;2024-02-26T12:35:13;100819.34;;;19.90;54.89
85758;BME280;76202;52.626;4.746;2024-02-26T12:37:39;100821.91;;;19.96;54.60
85758;BME280;76202;52.626;4.746;2024-02-26T12:40:06;100821.91;;;19.96;54.18
85758;BME280;76202;52.626;4.746;2024-02-26T12:42:35;100826.75;;;19.94;54.28
85758;BME280;76202;52.626;4.746;2024-02-26T12:45:11;100826.91;;;19.88;54.54
85758;BME280;76202;52.626;4.746;2024-02-26T12:47:38;100829.56;;;19.83;54.66